Wednesday, November 22, 2017, 11:34 AM EST
Back to Local

KWVL, Waterville, Waterville Robert Lafleur Airport

Location: Waterville, ME, United States Lat: 44.533
Local Time: 11:34 AM EST (16:34 GMT) Lon: -69.683
Time Zone: US/Eastern Elev: 334 ft

Show me the last for .
Show Decoded

2017-11-22 11:15 METAR KWVL 221615Z AUTO 32006KT 10SM -RA BKN013 BKN036 OVC049 03/02 A2987 RMK
                 AO2 P0000 =
2017-11-22 10:56 METAR KWVL 221556Z AUTO 00000KT 10SM -RA FEW029 SCT035 BKN049 03/02 A2986 RMK
                 AO2 RAB48 SLP141 P0000 T00280017 =
2017-11-22 09:56 METAR KWVL 221456Z AUTO 00000KT 10SM FEW090 03/02 A2989 RMK AO2 SLP150 T00330022
                 58011 =
2017-11-22 08:56 METAR KWVL 221356Z AUTO 00000KT 10SM CLR 03/02 A2990 RMK AO2 SLP154 T00280022 =
2017-11-22 07:56 METAR KWVL 221256Z AUTO 00000KT 10SM CLR 00/M01 A2992 RMK AO2 SLP161 T00001006
                 FZRANO =
2017-11-22 06:56 METAR KWVL 221156Z AUTO 00000KT 9SM CLR 00/M01 A2992 RMK AO2 SLP161 T00001011
                 10050 20000 58005 FZRANO =
2017-11-22 05:56 METAR KWVL 221056Z AUTO 22003KT 10SM CLR 02/01 A2993 RMK AO2 SLP166 T00220006
                 FZRANO =
2017-11-22 04:56 METAR KWVL 220956Z AUTO 20003KT 10SM CLR 02/01 A2994 RMK AO2 SLP168 T00220011
                 FZRANO =
2017-11-22 03:56 METAR KWVL 220856Z AUTO 22003KT 10SM CLR 03/01 A2993 RMK AO2 SLP166 T00280011
                 53006 =
2017-11-22 01:56 METAR KWVL 220656Z AUTO 20003KT 10SM CLR 04/01 A2992 RMK AO2 SLP161 T00390011 =
2017-11-22 00:56 METAR KWVL 220556Z AUTO 20003KT 10SM CLR 05/02 A2991 RMK AO2 SLP159 T00500017
                 10067 20050 51003 =
2017-11-21 23:56 METAR KWVL 220456Z AUTO 21004KT 10SM CLR 05/01 A2991 RMK AO2 SLP160 T00500011
                 401001089 =
2017-11-21 22:56 METAR KWVL 220356Z AUTO 20006KT 10SM CLR 06/02 A2991 RMK AO2 SLP158 T00610017 =
2017-11-21 21:56 METAR KWVL 220256Z AUTO 21005KT 10SM CLR 06/02 A2991 RMK AO2 SLP157 T00610017
                 51007 =
2017-11-21 20:56 METAR KWVL 220156Z AUTO 21003KT 10SM CLR 06/02 A2990 RMK AO2 SLP157 T00610017 =
2017-11-21 19:56 METAR KWVL 220056Z AUTO 21005KT 10SM CLR 06/02 A2990 RMK AO2 SLP154 T00610022 =
2017-11-21 18:56 METAR KWVL 212356Z AUTO 21004KT 10SM CLR 06/02 A2988 RMK AO2 SLP150 T00560022
                 10100 20050 53000 =
2017-11-21 17:56 METAR KWVL 212256Z AUTO 22004KT 10SM CLR 07/02 A2988 RMK AO2 SLP149 T00670017 =
2017-11-21 16:56 METAR KWVL 212156Z AUTO 19005KT 10SM CLR 07/01 A2987 RMK AO2 SLP147 T00720011 =
2017-11-21 15:56 METAR KWVL 212056Z AUTO 19007KT 160V220 10SM CLR 08/M01 A2988 RMK AO2 SLP150
                 T00781011 56003 =
2017-11-21 14:56 METAR KWVL 211956Z AUTO 19006KT 10SM CLR 08/M02 A2989 RMK AO2 SLP151 T00831017 =
2017-11-21 13:56 METAR KWVL 211856Z AUTO 19008KT 10SM CLR 09/M02 A2988 RMK AO2 SLP150 T00941017 =
2017-11-21 12:56 METAR KWVL 211756Z AUTO 19007G16KT 10SM CLR 08/M01 A2989 RMK AO2 SLP153
                 T00831006 10083 21061 58037 =
2017-11-21 11:56 METAR KWVL 211656Z AUTO 21010G14KT 10SM CLR 07/M02 A2993 RMK AO2 SLP166
                 T00671017 =

Support USWX by starting your Amazon purchase here.